createdAt,value
2023-01-09T00:04:56.871Z,88.15
2023-01-09T00:10:49.788Z,88.92
2023-01-09T00:16:42.023Z,87.99
2023-01-09T00:22:35.087Z,88.34
2023-01-09T00:28:27.962Z,87.43
2023-01-09T00:34:21.010Z,87.02
2023-01-09T00:40:15.535Z,87.54
2023-01-09T00:46:08.452Z,87.77
2023-01-09T00:52:02.183Z,88.50
2023-01-09T00:57:56.262Z,88.82
2023-01-09T01:03:49.090Z,88.56
2023-01-09T01:09:41.090Z,88.36
2023-01-09T01:15:34.215Z,88.21
2023-01-09T01:21:27.165Z,88.40
2023-01-09T01:27:20.211Z,88.16
2023-01-09T01:33:12.850Z,88.11
2023-01-09T01:39:06.489Z,87.77
2023-01-09T01:45:03.485Z,87.95
2023-01-09T01:51:04.651Z,87.85
2023-01-09T01:57:01.461Z,88.37
2023-01-09T02:02:54.507Z,87.73
2023-01-09T02:08:48.009Z,87.46
2023-01-09T02:14:40.142Z,87.83
2023-01-09T02:20:46.089Z,87.64
2023-01-09T02:27:02.090Z,87.43
2023-01-09T02:33:24.954Z,87.89
2023-01-09T02:39:33.485Z,88.11
2023-01-09T02:45:26.592Z,87.63
2023-01-09T02:51:26.488Z,87.60
2023-01-09T02:57:26.562Z,87.38
2023-01-09T03:03:47.124Z,88.23
2023-01-09T03:09:42.584Z,87.98
2023-01-09T03:15:38.638Z,87.97
2023-01-09T03:21:33.305Z,87.29
2023-01-09T03:27:27.110Z,86.96
2023-01-09T03:33:19.263Z,86.94
2023-01-09T03:39:11.584Z,86.91
2023-01-09T03:45:05.968Z,87.09
2023-01-09T03:50:58.601Z,87.24
2023-01-09T03:56:51.614Z,87.67
2023-01-09T04:02:44.507Z,87.52
2023-01-09T04:08:36.633Z,86.93
2023-01-09T04:14:29.545Z,86.59
2023-01-09T04:20:21.936Z,85.98
2023-01-09T04:26:14.605Z,86.06
2023-01-09T04:32:06.484Z,85.96
2023-01-09T04:37:58.945Z,85.88
2023-01-09T04:43:51.666Z,85.56
2023-01-09T04:49:44.795Z,85.73
2023-01-09T04:55:37.666Z,85.30
2023-01-09T05:01:29.750Z,85.55
2023-01-09T05:07:22.764Z,85.63
2023-01-09T05:13:15.627Z,86.15
2023-01-09T05:19:07.946Z,86.71
2023-01-09T05:25:00.806Z,86.45
2023-01-09T05:30:53.886Z,86.67
2023-01-09T05:36:46.994Z,86.80
2023-01-09T05:42:40.034Z,86.98
2023-01-09T05:48:33.103Z,86.82
2023-01-09T05:54:26.069Z,86.21
2023-01-09T06:00:19.602Z,86.55
2023-01-09T06:06:11.591Z,87.03
2023-01-09T06:12:04.291Z,85.99
2023-01-09T06:17:57.058Z,86.17
2023-01-09T06:23:49.569Z,85.82
2023-01-09T06:29:42.145Z,85.46
2023-01-09T06:35:35.080Z,84.62
2023-01-09T06:41:27.586Z,84.99
2023-01-09T06:47:20.047Z,84.53
2023-01-09T06:53:13.144Z,84.26
2023-01-09T06:59:07.148Z,84.00
2023-01-09T07:04:59.688Z,83.93
2023-01-09T07:10:53.207Z,84.47
2023-01-09T07:16:46.014Z,84.68
2023-01-09T07:22:38.155Z,84.23
2023-01-09T07:28:31.249Z,84.14
2023-01-09T07:34:24.166Z,83.92
2023-01-09T07:40:17.682Z,83.87
2023-01-09T07:46:09.929Z,85.29
2023-01-09T07:52:02.917Z,84.61
2023-01-09T07:57:55.050Z,84.59
2023-01-09T08:03:47.402Z,84.37
2023-01-09T08:09:40.264Z,83.56
2023-01-09T08:15:33.864Z,83.68
2023-01-09T08:21:26.176Z,83.66
2023-01-09T08:27:20.157Z,84.76
2023-01-09T08:33:12.304Z,85.11
2023-01-09T08:39:05.332Z,84.88
2023-01-09T08:45:36.812Z,85.71
2023-01-09T08:51:29.085Z,85.07
2023-01-09T08:57:21.223Z,90.17
2023-01-09T09:03:14.191Z,88.01
2023-01-09T09:09:07.226Z,85.84
2023-01-09T09:15:16.491Z,86.19
2023-01-09T09:21:12.007Z,85.20
2023-01-09T09:27:05.035Z,86.80
2023-01-09T09:32:57.740Z,86.47
2023-01-09T09:38:50.441Z,85.95
2023-01-09T09:45:17.092Z,86.82
2023-01-09T09:51:20.846Z,86.15
2023-01-09T09:57:20.607Z,84.26
2023-01-09T10:03:47.110Z,84.23
2023-01-09T10:09:54.406Z,84.25
2023-01-09T10:15:59.972Z,83.73
2023-01-09T10:22:19.889Z,82.06
2023-01-09T10:28:29.629Z,82.54
2023-01-09T10:34:39.784Z,82.23
2023-01-09T10:40:43.277Z,80.63
2023-01-09T10:46:53.627Z,79.04
2023-01-09T10:52:47.707Z,79.13
2023-01-09T10:58:40.580Z,77.33
2023-01-09T11:04:36.691Z,77.25
2023-01-09T11:10:50.936Z,77.67
2023-01-09T11:16:55.937Z,76.25
2023-01-09T11:22:55.419Z,75.54
2023-01-09T11:29:05.749Z,76.51
2023-01-09T11:34:59.366Z,75.98
2023-01-09T11:40:59.272Z,75.85
2023-01-09T11:46:52.657Z,76.76
2023-01-09T11:52:46.794Z,76.12
2023-01-09T11:58:40.078Z,76.29
2023-01-09T12:04:41.635Z,75.96
2023-01-09T12:10:39.627Z,76.05
2023-01-09T12:16:36.074Z,75.19
2023-01-09T12:22:35.335Z,75.53
2023-01-09T12:28:45.389Z,74.62
2023-01-09T12:35:06.896Z,74.75
2023-01-09T12:41:25.197Z,73.53
2023-01-09T12:47:45.667Z,74.31
2023-01-09T12:53:58.890Z,73.52
2023-01-09T13:00:06.069Z,72.63
2023-01-09T13:05:59.004Z,72.77
2023-01-09T13:12:14.685Z,73.71
2023-01-09T13:18:34.286Z,73.72
2023-01-09T13:24:51.872Z,72.68
2023-01-09T13:31:05.082Z,72.17
2023-01-09T13:36:59.064Z,71.74
2023-01-09T13:43:01.270Z,71.44
2023-01-09T13:48:55.026Z,70.71
2023-01-09T13:54:56.265Z,71.33
2023-01-09T14:00:51.093Z,70.87
2023-01-09T14:07:22.332Z,70.77
2023-01-09T14:13:15.164Z,71.37
2023-01-09T14:19:17.035Z,70.73
2023-01-09T14:25:17.025Z,72.34
2023-01-09T14:31:10.775Z,72.06
2023-01-09T14:37:03.425Z,72.48
2023-01-09T14:43:04.809Z,72.60
2023-01-09T14:49:06.325Z,72.94
2023-01-09T14:55:06.896Z,73.75
2023-01-09T15:01:02.867Z,73.84
2023-01-09T15:06:55.617Z,72.87
2023-01-09T15:12:51.825Z,73.17
2023-01-09T15:18:44.852Z,73.17
2023-01-09T15:24:37.455Z,73.19
2023-01-09T15:30:34.871Z,73.35
2023-01-09T15:36:32.121Z,73.36
2023-01-09T15:42:46.103Z,73.97
2023-01-09T15:48:38.647Z,74.53
2023-01-09T15:54:33.875Z,75.13
2023-01-09T16:00:41.789Z,75.30
2023-01-09T16:06:37.615Z,75.04
2023-01-09T16:12:30.744Z,75.19
2023-01-09T16:18:33.529Z,75.16
2023-01-09T16:24:54.246Z,74.75
2023-01-09T16:30:55.884Z,74.67
2023-01-09T16:36:48.653Z,75.50
2023-01-09T16:43:00.213Z,75.84
2023-01-09T16:48:54.024Z,76.18
2023-01-09T16:54:47.635Z,77.30
2023-01-09T17:00:40.845Z,76.95
2023-01-09T17:06:34.725Z,77.35
2023-01-09T17:12:28.273Z,77.09
2023-01-09T17:18:23.472Z,76.52
2023-01-09T17:24:34.145Z,75.91
2023-01-09T17:30:26.663Z,76.02
2023-01-09T17:36:25.875Z,76.29
2023-01-09T17:42:19.354Z,75.75
2023-01-09T17:48:22.679Z,75.80
2023-01-09T17:54:16.646Z,74.70
2023-01-09T18:00:24.907Z,74.72
2023-01-09T18:06:20.262Z,75.26
2023-01-09T18:12:12.799Z,75.37
2023-01-09T18:18:08.354Z,74.92
2023-01-09T18:24:02.155Z,75.49
2023-01-09T18:29:58.503Z,75.51
2023-01-09T18:35:52.563Z,75.59
2023-01-09T18:41:44.363Z,75.48
2023-01-09T18:47:36.868Z,76.41
2023-01-09T18:53:29.953Z,77.27
2023-01-09T18:59:22.858Z,78.08
2023-01-09T19:05:16.278Z,78.65
2023-01-09T19:11:09.088Z,79.16
2023-01-09T19:17:01.953Z,79.83
2023-01-09T19:22:56.977Z,80.35
2023-01-09T19:28:50.912Z,80.55
2023-01-09T19:34:42.774Z,80.89
2023-01-09T19:40:36.273Z,80.85
2023-01-09T19:46:35.189Z,80.93
2023-01-09T19:52:27.965Z,82.00
2023-01-09T19:58:21.656Z,81.83
2023-01-09T20:04:18.437Z,81.79
2023-01-09T20:10:12.356Z,81.82
2023-01-09T20:16:06.528Z,81.73
2023-01-09T20:22:04.004Z,81.49
2023-01-09T20:27:58.782Z,81.77
2023-01-09T20:33:52.014Z,81.06
2023-01-09T20:39:45.877Z,81.10
2023-01-09T20:45:39.298Z,80.61
2023-01-09T20:51:32.307Z,80.21
2023-01-09T20:57:25.356Z,79.19
2023-01-09T21:03:18.356Z,78.62
2023-01-09T21:09:11.099Z,78.92
2023-01-09T21:15:12.253Z,78.50
2023-01-09T21:21:10.675Z,79.01
2023-01-09T21:27:04.133Z,78.68
2023-01-09T21:32:57.179Z,78.75
2023-01-09T21:38:52.245Z,78.42
2023-01-09T21:45:02.734Z,78.74
2023-01-09T21:50:55.040Z,79.42
2023-01-09T21:56:47.969Z,79.29
2023-01-09T22:02:41.302Z,78.61
2023-01-09T22:08:33.420Z,78.48
2023-01-09T22:14:26.400Z,79.10
2023-01-09T22:20:20.504Z,78.22
2023-01-09T22:26:15.070Z,78.10
2023-01-09T22:32:07.253Z,78.27
2023-01-09T22:37:59.664Z,77.67
2023-01-09T22:43:52.211Z,76.70
2023-01-09T22:49:52.736Z,76.86
2023-01-09T22:55:45.223Z,76.68
2023-01-09T23:01:37.687Z,76.70
2023-01-09T23:07:30.461Z,75.67
2023-01-09T23:13:23.334Z,76.29
2023-01-09T23:19:15.883Z,76.40
2023-01-09T23:25:09.130Z,75.84
2023-01-09T23:31:01.573Z,75.64
2023-01-09T23:36:57.588Z,75.52
2023-01-09T23:43:09.124Z,75.25
2023-01-09T23:49:01.653Z,75.45
2023-01-09T23:54:54.528Z,75.25
